createdAt,value
2023-05-03T00:01:22.341Z,6.90
2023-05-03T00:05:34.789Z,6.07
2023-05-03T00:09:50.136Z,8.73
2023-05-03T00:14:02.552Z,8.30
2023-05-03T00:18:15.005Z,9.57
2023-05-03T00:22:27.740Z,7.38
2023-05-03T00:26:40.094Z,4.55
2023-05-03T00:30:53.549Z,7.28
2023-05-03T00:35:07.013Z,4.80
2023-05-03T00:39:19.402Z,3.45
2023-05-03T00:43:32.643Z,2.47
2023-05-03T00:47:45.580Z,4.35
2023-05-03T00:51:59.633Z,3.40
2023-05-03T00:56:13.482Z,2.90
2023-05-03T01:00:25.998Z,1.42
2023-05-03T01:04:39.348Z,2.45
2023-05-03T01:09:32.651Z,2.17
2023-05-03T01:13:56.573Z,2.85
2023-05-03T01:18:24.583Z,3.38
2023-05-03T01:22:58.529Z,1.75
2023-05-03T01:27:12.009Z,2.22
2023-05-03T01:31:34.161Z,3.97
2023-05-03T01:36:23.496Z,1.95
2023-05-03T01:40:58.648Z,3.33
2023-05-03T01:45:13.143Z,2.83
2023-05-03T01:49:25.667Z,2.88
2023-05-03T01:53:38.182Z,2.53
2023-05-03T01:57:50.663Z,1.50
2023-05-03T02:02:04.117Z,2.42
2023-05-03T02:06:16.531Z,5.15
2023-05-03T02:10:28.925Z,9.15
2023-05-03T02:14:41.522Z,8.32
2023-05-03T02:18:54.727Z,6.97
2023-05-03T02:23:07.302Z,5.22
2023-05-03T02:27:19.699Z,8.60
2023-05-03T02:31:32.206Z,4.78
2023-05-03T02:35:45.085Z,3.60
2023-05-03T02:39:57.523Z,2.45
2023-05-03T02:44:10.079Z,3.05
2023-05-03T02:48:24.017Z,4.00
2023-05-03T02:52:36.498Z,1.95
2023-05-03T02:56:49.316Z,1.50
2023-05-03T03:01:01.757Z,1.80
2023-05-03T03:05:17.805Z,2.75
2023-05-03T03:09:34.250Z,2.63
2023-05-03T03:13:50.664Z,2.47
2023-05-03T03:18:03.481Z,1.80
2023-05-03T03:22:16.030Z,2.83
2023-05-03T03:26:28.555Z,3.97
2023-05-03T03:30:41.204Z,2.90
2023-05-03T03:35:04.717Z,1.98
2023-05-03T03:39:17.283Z,3.30
2023-05-03T03:43:31.103Z,2.35
2023-05-03T03:47:44.866Z,3.10
2023-05-03T03:51:57.460Z,2.47
2023-05-03T03:56:09.924Z,1.90
2023-05-03T04:00:22.480Z,3.58
2023-05-03T04:04:42.632Z,1.65
2023-05-03T04:08:55.122Z,4.65
2023-05-03T04:13:07.933Z,2.67
2023-05-03T04:17:21.081Z,4.20
2023-05-03T04:21:33.669Z,1.50
2023-05-03T04:25:49.049Z,2.80
2023-05-03T04:30:04.655Z,4.93
2023-05-03T04:34:19.329Z,6.18
2023-05-03T04:38:34.639Z,3.40
2023-05-03T04:42:49.214Z,7.78
2023-05-03T04:47:03.087Z,6.90
2023-05-03T04:51:15.659Z,7.45
2023-05-03T04:55:29.881Z,11.18
2023-05-03T04:59:44.202Z,4.97
2023-05-03T05:03:57.082Z,6.55
2023-05-03T05:08:17.835Z,4.35
2023-05-03T05:12:35.965Z,7.95
2023-05-03T05:16:51.757Z,8.18
2023-05-03T05:21:04.762Z,34.38
2023-05-03T05:25:19.219Z,5.10
2023-05-03T05:29:32.632Z,5.28
2023-05-03T05:33:45.271Z,8.20
2023-05-03T05:37:58.385Z,8.15
2023-05-03T05:42:12.334Z,4.75
2023-05-03T05:46:25.691Z,5.80
2023-05-03T05:50:39.719Z,4.68
2023-05-03T05:54:55.883Z,4.25
2023-05-03T05:59:09.028Z,3.05
2023-05-03T06:03:21.710Z,3.47
2023-05-03T06:07:37.099Z,6.75
2023-05-03T06:11:49.612Z,4.82
2023-05-03T06:16:02.913Z,3.35
2023-05-03T06:20:16.829Z,9.23
2023-05-03T06:24:31.457Z,5.50
2023-05-03T06:28:46.100Z,4.63
2023-05-03T06:32:58.963Z,10.00
2023-05-03T06:37:11.771Z,11.75
2023-05-03T06:41:24.328Z,16.10
2023-05-03T06:45:36.822Z,11.85
2023-05-03T06:49:49.798Z,9.95
2023-05-03T06:54:12.788Z,9.98
2023-05-03T06:58:25.195Z,7.65
2023-05-03T07:02:37.914Z,11.70
2023-05-03T07:06:56.559Z,19.88
2023-05-03T07:11:10.308Z,14.25
2023-05-03T07:15:22.770Z,15.68
2023-05-03T07:19:35.358Z,22.40
2023-05-03T07:23:47.757Z,32.63
2023-05-03T07:28:00.637Z,12.50
2023-05-03T07:32:13.433Z,12.80
2023-05-03T07:36:26.524Z,15.57
2023-05-03T07:40:38.964Z,23.55
2023-05-03T07:44:52.416Z,24.30
2023-05-03T07:49:06.500Z,28.02
2023-05-03T07:53:18.776Z,24.67
2023-05-03T07:57:31.402Z,16.75
2023-05-03T08:01:43.957Z,13.02
2023-05-03T08:05:56.438Z,15.00
2023-05-03T08:10:09.003Z,28.60
2023-05-03T08:14:21.478Z,27.88
2023-05-03T08:18:33.932Z,27.92
2023-05-03T08:22:47.064Z,25.00
2023-05-03T08:26:59.568Z,23.13
2023-05-03T08:31:12.789Z,30.17
2023-05-03T08:35:25.683Z,36.58
2023-05-03T08:39:39.172Z,13.82
2023-05-03T08:43:54.869Z,18.35
2023-05-03T08:48:07.520Z,15.55
2023-05-03T08:52:24.031Z,29.48
2023-05-03T08:56:41.848Z,22.52
2023-05-03T09:00:54.224Z,19.92
2023-05-03T09:05:34.408Z,14.60
2023-05-03T09:09:49.661Z,19.77
2023-05-03T09:14:18.941Z,14.45
2023-05-03T09:18:31.392Z,15.90
2023-05-03T09:22:52.703Z,17.15
2023-05-03T09:27:19.529Z,14.45
2023-05-03T09:31:33.676Z,11.07
2023-05-03T09:36:00.632Z,14.20
2023-05-03T09:40:18.430Z,16.50
2023-05-03T09:44:51.982Z,9.27
2023-05-03T09:49:04.561Z,13.02
2023-05-03T09:53:20.400Z,14.85
2023-05-03T09:57:33.827Z,9.73
2023-05-03T10:01:48.002Z,9.98
2023-05-03T10:06:04.290Z,11.20
2023-05-03T10:10:16.905Z,9.10
2023-05-03T10:14:29.855Z,14.00
2023-05-03T10:18:49.732Z,13.55
2023-05-03T10:23:05.175Z,9.27
2023-05-03T10:27:17.685Z,8.50
2023-05-03T10:31:49.209Z,10.82
2023-05-03T10:36:06.882Z,12.32
2023-05-03T10:40:19.727Z,9.85
2023-05-03T10:44:39.650Z,11.20
2023-05-03T10:49:18.822Z,7.57
2023-05-03T10:53:34.203Z,7.60
2023-05-03T10:57:48.549Z,7.05
2023-05-03T11:02:01.368Z,6.35
2023-05-03T11:06:38.977Z,5.47
2023-05-03T11:10:58.144Z,9.15
2023-05-03T11:15:12.561Z,7.47
2023-05-03T11:19:25.734Z,5.38
2023-05-03T11:23:39.902Z,5.50
2023-05-03T11:27:52.298Z,7.05
2023-05-03T11:32:04.959Z,6.65
2023-05-03T11:36:17.640Z,5.43
2023-05-03T11:40:30.072Z,5.30
2023-05-03T11:44:42.564Z,4.35
2023-05-03T11:48:55.211Z,5.47
2023-05-03T11:53:08.085Z,6.53
2023-05-03T11:57:21.997Z,6.68
2023-05-03T12:01:35.108Z,6.57
2023-05-03T12:05:49.664Z,6.15
2023-05-03T12:15:03.498Z,10.07
2023-05-03T12:19:33.514Z,10.00
2023-05-03T12:23:50.014Z,7.72
2023-05-03T12:32:23.156Z,7.70
2023-05-03T12:36:37.732Z,5.45
2023-05-03T12:40:54.995Z,3.47
2023-05-03T12:45:12.028Z,3.47
2023-05-03T12:49:25.201Z,3.17
2023-05-03T12:53:39.002Z,2.70
2023-05-03T12:58:14.634Z,4.40
2023-05-03T13:06:43.073Z,5.10
2023-05-03T13:10:56.432Z,4.20
2023-05-03T13:15:09.723Z,3.85
2023-05-03T13:19:22.136Z,2.47
2023-05-03T13:23:34.620Z,1.80
2023-05-03T13:27:47.607Z,4.45
2023-05-03T13:32:00.205Z,1.88
2023-05-03T13:36:12.659Z,2.00
2023-05-03T13:40:25.196Z,2.38
2023-05-03T13:44:37.617Z,2.30
2023-05-03T13:48:50.100Z,15.10
2023-05-03T13:53:02.615Z,16.80
2023-05-03T13:57:15.391Z,15.80
2023-05-03T14:01:29.201Z,18.50
2023-05-03T14:05:41.651Z,9.18
2023-05-03T14:09:54.002Z,12.02
2023-05-03T14:14:06.544Z,12.10
2023-05-03T14:18:19.012Z,12.35
2023-05-03T14:22:33.944Z,9.30
2023-05-03T14:26:46.566Z,12.60
2023-05-03T14:30:58.999Z,9.63
2023-05-03T14:35:11.570Z,10.85
2023-05-03T14:39:27.087Z,12.73
2023-05-03T14:43:39.593Z,9.40
2023-05-03T14:47:52.003Z,10.35
2023-05-03T14:52:04.665Z,8.88
2023-05-03T14:56:17.093Z,9.20
2023-05-03T15:00:29.546Z,6.97
2023-05-03T15:04:42.038Z,8.57
2023-05-03T15:08:55.332Z,8.07
2023-05-03T15:13:08.710Z,8.68
2023-05-03T15:17:21.348Z,14.90
2023-05-03T15:21:45.482Z,10.15
2023-05-03T15:26:00.602Z,9.82
2023-05-03T15:30:15.082Z,10.65
2023-05-03T15:34:27.753Z,15.45
2023-05-03T15:38:41.233Z,11.07
2023-05-03T15:42:53.775Z,9.90
2023-05-03T15:47:07.675Z,14.07
2023-05-03T15:51:22.397Z,11.48
2023-05-03T15:55:35.027Z,12.93
2023-05-03T15:59:48.695Z,10.93
2023-05-03T16:04:01.394Z,12.35
2023-05-03T16:08:14.004Z,8.60
2023-05-03T16:12:29.482Z,10.45
2023-05-03T16:16:42.249Z,10.68
2023-05-03T16:20:55.001Z,10.75
2023-05-03T16:25:13.592Z,11.27
2023-05-03T16:29:26.060Z,12.50
2023-05-03T16:33:38.642Z,13.90
2023-05-03T16:37:51.660Z,12.15
2023-05-03T16:42:04.188Z,11.38
2023-05-03T16:46:16.753Z,16.17
2023-05-03T16:50:29.231Z,12.45
2023-05-03T16:54:43.607Z,16.17
2023-05-03T16:58:56.741Z,12.30
2023-05-03T17:03:09.371Z,16.65
2023-05-03T17:07:22.515Z,12.63
2023-05-03T17:11:36.420Z,16.35
2023-05-03T17:15:49.072Z,13.55
2023-05-03T17:20:01.687Z,11.13
2023-05-03T17:24:14.236Z,14.30
2023-05-03T17:28:27.201Z,15.05
2023-05-03T17:32:39.693Z,17.08
2023-05-03T17:36:52.261Z,15.43
2023-05-03T17:41:08.272Z,12.70
2023-05-03T17:45:20.563Z,16.15
2023-05-03T17:49:35.888Z,11.45
2023-05-03T17:53:48.409Z,13.27
2023-05-03T17:58:00.850Z,15.48
2023-05-03T18:02:13.791Z,9.38
2023-05-03T18:06:27.068Z,12.10
2023-05-03T18:10:42.096Z,11.68
2023-05-03T18:14:59.744Z,12.15
2023-05-03T18:19:13.060Z,10.40
2023-05-03T18:23:25.488Z,12.98
2023-05-03T18:27:38.065Z,10.68
2023-05-03T18:31:58.706Z,17.67
2023-05-03T18:36:12.335Z,10.82
2023-05-03T18:40:25.503Z,11.13
2023-05-03T18:44:39.878Z,12.38
2023-05-03T18:48:53.898Z,9.40
2023-05-03T18:53:06.798Z,16.88
2023-05-03T18:57:20.277Z,14.88
2023-05-03T19:01:32.789Z,13.50
2023-05-03T19:05:45.358Z,17.58
2023-05-03T19:09:58.099Z,17.38
2023-05-03T19:14:10.659Z,18.05
2023-05-03T19:18:23.099Z,14.27
2023-05-03T19:22:35.377Z,16.23
2023-05-03T19:26:47.882Z,20.83
2023-05-03T19:31:04.517Z,35.45
2023-05-03T19:35:20.885Z,31.48
2023-05-03T19:39:36.010Z,35.67
2023-05-03T19:43:48.473Z,40.28
2023-05-03T19:48:01.080Z,44.55
2023-05-03T19:52:13.514Z,40.35
2023-05-03T19:56:25.977Z,33.15
2023-05-03T20:00:39.017Z,36.78
2023-05-03T20:04:51.513Z,42.88
2023-05-03T20:09:06.830Z,37.33
2023-05-03T20:13:19.421Z,30.45
2023-05-03T20:17:31.897Z,31.75
2023-05-03T20:21:46.238Z,36.05
2023-05-03T20:26:02.007Z,32.35
2023-05-03T20:30:18.161Z,37.88
2023-05-03T20:34:33.629Z,30.70
2023-05-03T20:38:46.204Z,34.53
2023-05-03T20:42:58.612Z,31.65
2023-05-03T20:47:11.069Z,30.83
2023-05-03T20:51:23.749Z,30.02
2023-05-03T20:55:36.124Z,26.45
2023-05-03T20:59:48.687Z,26.02
2023-05-03T21:04:01.350Z,26.75
2023-05-03T21:08:13.658Z,31.25
2023-05-03T21:12:26.272Z,25.88
2023-05-03T21:16:38.698Z,23.00
2023-05-03T21:20:53.905Z,21.15
2023-05-03T21:25:06.916Z,21.60
2023-05-03T21:29:19.247Z,27.35
2023-05-03T21:33:31.688Z,21.08
2023-05-03T21:37:46.401Z,22.80
2023-05-03T21:41:59.542Z,20.70
2023-05-03T21:46:11.941Z,27.70
2023-05-03T21:50:24.486Z,22.77
2023-05-03T21:54:36.848Z,36.03
2023-05-03T21:58:49.346Z,38.20
2023-05-03T22:03:01.883Z,43.55
2023-05-03T22:07:15.064Z,36.75
2023-05-03T22:11:28.451Z,32.70
2023-05-03T22:15:40.856Z,31.83
2023-05-03T22:19:53.364Z,35.42
2023-05-03T22:24:06.096Z,32.05
2023-05-03T22:28:18.583Z,43.03
2023-05-03T22:32:31.103Z,20.88
2023-05-03T22:36:43.350Z,15.77
2023-05-03T22:40:55.738Z,11.70
2023-05-03T22:45:08.820Z,12.60
2023-05-03T22:49:21.191Z,14.27
2023-05-03T22:53:33.540Z,14.65
2023-05-03T22:57:46.022Z,12.75
2023-05-03T23:01:58.524Z,10.70
2023-05-03T23:06:11.036Z,12.13
2023-05-03T23:10:23.548Z,18.35
2023-05-03T23:14:36.036Z,13.70
2023-05-03T23:18:48.791Z,10.90
2023-05-03T23:23:01.178Z,13.30
2023-05-03T23:27:13.662Z,11.25
2023-05-03T23:31:31.433Z,11.25
2023-05-03T23:35:45.418Z,13.13
2023-05-03T23:39:57.811Z,13.70
2023-05-03T23:44:12.428Z,11.43
2023-05-03T23:48:24.964Z,11.10
2023-05-03T23:52:37.661Z,9.93
2023-05-03T23:56:50.238Z,8.38
